Aérodrome :
LOGIN :

S'inscrire | Disclaimer

   EN    FR    IT 

 










Légende :    VFR   VFR Marginal   IFR   IFR Intensif   IFR Très Intensif
Visi : 
Plafond : 
>= 8 km
>= 3000ft
5 à 8 km
1000 à 3000 ft
1500m à 5 km
500 à 1000 ft
800 à 1500m
200 à 500 ft
< 800m
< 200 ft
Symboles :   Orages  Brouillard  Fortes neiges  Fortes précipitations  Vent > 20 kt
SIGMETs :   Divers  Orages  Givrage  Turbulence  Onde Orograph.  Cendres Volcan.







- Altitude de l'aérodrome : 60 ft
- Code IATA : MJT


LGMT - Odysseas Elytis

DERNIER METAR :
  • 191620Z 31007KT 260V360 9999 FEW025 31/15 Q1011

METARs EXPIRÉS :
  • 191550Z 31008KT 260V360 9999 FEW025 32/15 Q1011
  • 191520Z 31008KT 260V360 9999 FEW025 32/14 Q1011
  • 191450Z 32008KT 270V360 9999 FEW025 32/14 Q1011
  • 191420Z 31007KT 250V010 9999 FEW025 32/14 Q1011
  • 191350Z 31007KT 230V010 9999 FEW025 32/14 Q1011
  • 191320Z 32010KT 280V360 9999 FEW025 30/17 Q1012

TAF TAF LGMT
Valide du 19 à 15h jusqu'au 20 à 00h UTC


191400Z 1915/1924 33010KT 9999 FEW025
TEMPO 1915/1918 03012G22KT
Pas de NOTAMs connus pour ce terrain.
3 SIGMETs publiés pour la FIR Athinai (LGGG) :
 
Orages noyés dans la masse
LGGG SIGMET 6 VALID 191550/191750 LGAT
LGGG ATHINAI FIR/UIR EMBD TS OBS N OF N3730 AND W OF E02450 AND E OF E02040 LAN STNR NC=
Annulation du SIGMET 4 
LGGG SIGMET 5 VALID 191549/191749 LGAT
LGGG ATHINAI FIR/UIR CNL SIGMET 4 191548/191748=
SIGMET 4  ANNULÉ :
Orages noyés dans la masse
LGGG SIGMET 4 VALID 191548/191748 LGAT
LGGG ATHINAI FIR/UIR EMBD TS OBS N OF N3730 AND W OF E02450 AND E OF E02140 LAN STNR NC=



MET'MAP, la Météo Aéronautique d'un coup d'oeil ! - Copyright ORBIFLY Décembre 2007 - Disclaimer

ORBIFLY MET'MAP TEAM :

Programmation & Développement : Alexandra Zaïnal
Conception & Développement : Baudouin d'Aumeries
Co-Programmation & Développement : Marc-Olivier Méhu
Soutien technique & logistique : Manuel Goepfert

Contact : metmap@orbifly.com




SOURCES & CREDITS :

   NOAA